首页
METAR-TAF:

METAR-TAF

机场 :

Ilam, 伊朗

纬度: 33-35-09N, 经度: 046-24-20E, 海拔: 1334米

当前天气观测

该预报发布于28分钟前的08:00 UTC
风速6节,风向南转西南
温度 13°C
湿度 54%
气压 1021 hPa
能见度10公里或以上
少量云层高于3500英尺, 积雨云.
散云层高于4000英尺
多云层高于8000英尺

METAR: OICI 310800Z 21006KT 9999 FEW035CB SCT040 BKN080 13/04 Q1021 A3016

时间: 12:58 (08:28 UTC)

预报

该预报发布于2小时和38分钟前的05:50 UTC
预报有效从31日的 06点(UTC)到 01日的 12点(UTC)
风速10节,风向东南
能見度: 8000
少量云层高于3500英尺
多云层高于10000英尺
短暂存在
从 31日的 06点(UTC)到 31日的 12点(UTC)
风速14节,风向西转西南
少量云层高于3500英尺, 积雨云.
散云层高于4000英尺
阴天层高于10000英尺
成为
从 01日的 04点(UTC)到 01日的 06点(UTC)
少量云层高于3500英尺, 积雨云.
散云层高于4000英尺
多云层高于9000英尺
短暂存在
从 01日的 06点(UTC)到 01日的 12点(UTC)
风速16节,风向东南,有时为26节阵风
能見度: 5000
少量云层高于3000英尺, 积雨云.
散云层高于3500英尺
阴天层高于9000英尺

TAF: OICI 310550Z 3106/0112 14010KT 8000 FEW035 BKN100 TEMPO 3106/3112 25014KT FEW035CB SCT040 OVC100 BECMG 0104/0106 FEW035CB SCT040 BKN090 TEMPO 0106/0112 14016G26KT 5000 RA FEW030CB SCT035 OVC090

超过4000个机场的气象观测和天气预报(METAR&TAF报告)。

可查询的气象台以黄色和红色小点在地图上表示。

将鼠标移到小点上方,可查看气象台名称。

然后点击查看天气观测和预报。

如需切换地图:点击带黑十字的绿色按钮放大地图;点击带横线的绿色按钮缩小地图;或者点击绿色箭头查看邻近地区的地图。


METAR-TAF: